St George Airport St George US
ICAO: PAPB
IATA:
Category: Medium
Scheduled Services:

Elevation: 125 ft
TransAlt. 18000 ft.

Airport Communications:
ASOS:135.45
ANCHORAGE CNTR:119.1
CTAF:122.8
KENAI RDO:122.5

PAPB Zoom In..

If you have problems with the map follow the link
https://www.worldairports.se/pages/airport.php?
ICAO=PAPB

Runways:

(A) RW 11 length 4982 ft width 150 ft
ILS 110.10 / hdg 107

(B) RW 29 length 4982 ft width 150 ft
---- / hdg 287

Location; PAPB
Day. 12 / Time. 10.53 Zulu
* Altimeter: 29.34
* Temperature: -07° c. -19.4°f.
* Wind from: 350° Speed 04 kn.
Dewpoint: -08° c.
Visibility: 10 Statute Miles.
Clouds: Few 3300 ft.

PAPB 121053Z AUTO 35004KT 10SM FEW033 M07/M08 A2934 RMK AO2 SLP924 T10671078 TSNO $


Wind From 350°
Speed 04 kn.

 
 
jpsmedia worldairports.se 2019   terms of use